Aviation Digital Data Service (ADDS)

Output produced by METARs form (0241 UTC 25 August 2016)
found at http://aviationweather.gov/adds/metars/
 
KLYH 242321Z 2500/2524 20006KT P6SM SCT080 
     TEMPO 2509/2512 5SM BR 
     FM251300 20003KT P6SM SCT040 BKN120 
     FM251900 21005KT P6SM SCT050